Ana Sayfa
METAR-TAF:

METAR-TAF

Havaalanları :

Harbor Springs Municipal Airport

Harbor Springs, Michigan, Amerika Birleşik Devletleri

Enlem: 45-25-32N, Boylam: 084-54-48W, yükseklik: 209 m

Güncel hava durumu gözlemi

Rapor saat 05:15 UTC de 22 dakika önce yapıldı.
Rüzgar batı/kuzeybatıdan 8 kt
Sıcaklık -3°C
Nem 86%
Basınç 1000 hPa
Görüş mesafesi: 4.8 km
2200 ft yükseklikte parçalı bulutlu
2600 ft yükseklikte çok bulutlu
hafif kar

METAR: KMGN 100515Z AUTO 30008KT 3SM -SN SCT022 OVC026 M03/M05 A2954 RMK AO2 T10401052

Saat: 00:37 (05:37 UTC)


TAF: eksik

4.000'den fazla havaalanı için hava durumu gözlemleri ve tahminleri (METAR ve TAF raporları).

Kullanılabilir istasyonlar harita üzerinde sarı ve kırmızı noktalarla gösterilir.

İstasyonun adını görmek için fareyi noktanın üzerinde gezdirin.

Sonrasında hava gözlem ve tahminlerini görmek için tıklayın.

Haritayı değiştirmek için: yaklaştırmak için siyah artı işaretli yeşil düğmeye ve uzaklaştırmak için de eksi işaretli düğmeye hızla tıklayın; bitişik haritalar için yeşil okları kullanın.


METAR-TAF: